Time;durP1;ratioP1;P1;durP2;ratioP2;P2;SDS_P1;SDS_P2;PMS_P1;PMS_P2;Temp;Humidity;BMP_temperature;BMP_pressure;BME280_temperature;BME280_humidity;BME280_pressure;Samples;Min_cycle;Max_cycle;Signal;HPM_P1;HPM_P2
2022/06/30 00:00:06;;;;;;;52.37;34.10;;;;;;;;;;763525;182;917602;-72
2022/06/30 00:02:32;;;;;;;44.00;35.10;;;;;;;;;;772692;180;918832;-72
2022/06/30 00:04:58;;;;;;;44.63;32.88;;;;;;;;;;765353;183;919703;-72
2022/06/30 00:07:24;;;;;;;43.50;31.23;;;;;;;;;;763077;182;919575;-72
2022/06/30 00:09:50;;;;;;;43.53;31.67;;;;;;;;;;768802;183;919056;-72
2022/06/30 00:12:16;;;;;;;37.47;31.13;;;;;;;;;;762132;183;919332;-70
2022/06/30 00:14:41;;;;;;;40.13;32.30;;;;;;;;;;759907;182;1023435;-72
2022/06/30 00:17:07;;;;;;;41.05;33.08;;;;;;;;;;762193;182;918891;-73
2022/06/30 00:19:33;;;;;;;40.37;29.43;;;;;;;;;;767130;181;918956;-71
2022/06/30 00:21:59;;;;;;;33.03;29.45;;;;;;;;;;762189;182;919056;-72
2022/06/30 00:24:25;;;;;;;35.37;29.07;;;;;;;;;;763222;182;919230;-72
2022/06/30 00:26:51;;;;;;;34.43;27.87;;;;;;;;;;768813;183;918229;-72
2022/06/30 00:29:16;;;;;;;37.97;29.23;;;;;;;;;;764550;183;919414;-73
2022/06/30 00:31:42;;;;;;;38.10;30.83;;;;;;;;;;763845;182;919240;-72
2022/06/30 00:34:08;;;;;;;40.73;27.73;;;;;;;;;;768419;183;918893;-72
2022/06/30 00:36:34;;;;;;;39.77;28.30;;;;;;;;;;762856;180;919368;-72
2022/06/30 00:39:00;;;;;;;41.80;30.40;;;;;;;;;;762745;183;1124707;-72
2022/06/30 00:41:26;;;;;;;37.45;33.13;;;;;;;;;;763989;183;919190;-70
2022/06/30 00:43:52;;;;;;;39.23;34.23;;;;;;;;;;754667;183;1020652;-70
2022/06/30 00:46:17;;;;;;;43.57;32.20;;;;;;;;;;760441;182;918184;-73
2022/06/30 00:48:43;;;;;;;40.97;30.73;;;;;;;;;;767959;182;632102;-74
2022/06/30 00:51:09;;;;;;;45.10;34.97;;;;;;;;;;768281;181;924330;-74
2022/06/30 00:53:35;;;;;;;53.73;34.50;;;;;;;;;;763309;182;919051;-73
2022/06/30 00:56:01;;;;;;;44.00;33.90;;;;;;;;;;764331;182;919788;-72
2022/06/30 00:58:27;;;;;;;38.97;33.17;;;;;;;;;;768032;182;919308;-73
2022/06/30 01:00:53;;;;;;;43.23;34.10;;;;;;;;;;763177;183;919079;-75
2022/06/30 01:03:19;;;;;;;47.17;32.45;;;;;;;;;;763833;182;918934;-72
2022/06/30 01:05:45;;;;;;;44.10;30.20;;;;;;;;;;770132;182;918824;-73
2022/06/30 01:08:11;;;;;;;38.27;31.20;;;;;;;;;;760689;183;919260;-73
2022/06/30 01:13:08;;;;;;;39.00;30.60;;;;;;;;;;764477;180;919016;-71
2022/06/30 01:15:34;;;;;;;34.67;25.73;;;;;;;;;;769886;183;918512;-72
2022/06/30 01:18:00;;;;;;;32.07;25.03;;;;;;;;;;764925;182;932668;-73
2022/06/30 01:20:26;;;;;;;26.13;23.00;;;;;;;;;;762940;183;919296;-72
2022/06/30 01:22:52;;;;;;;33.70;25.33;;;;;;;;;;769456;182;915818;-74
2022/06/30 01:25:18;;;;;;;28.70;22.00;;;;;;;;;;764598;182;919583;-73
2022/06/30 01:27:44;;;;;;;31.40;22.00;;;;;;;;;;763675;183;919636;-73
2022/06/30 01:30:10;;;;;;;35.67;21.53;;;;;;;;;;763870;182;919702;-73
2022/06/30 01:32:36;;;;;;;26.30;20.77;;;;;;;;;;766096;183;918919;-75
2022/06/30 01:35:02;;;;;;;29.50;22.50;;;;;;;;;;763829;183;918150;-71
2022/06/30 01:37:27;;;;;;;31.37;22.63;;;;;;;;;;761927;182;918200;-73
2022/06/30 01:39:53;;;;;;;29.80;22.37;;;;;;;;;;768225;183;918900;-75
2022/06/30 01:42:20;;;;;;;37.67;24.60;;;;;;;;;;766080;182;918269;-73
2022/06/30 01:44:45;;;;;;;31.30;26.30;;;;;;;;;;762251;182;918821;-73
2022/06/30 01:47:11;;;;;;;31.00;25.20;;;;;;;;;;767815;182;915997;-72
2022/06/30 01:49:37;;;;;;;33.33;25.67;;;;;;;;;;757367;182;920304;-73
2022/06/30 01:52:03;;;;;;;31.30;26.33;;;;;;;;;;759573;184;918995;-74
2022/06/30 01:54:29;;;;;;;30.70;24.70;;;;;;;;;;759129;182;919137;-73
2022/06/30 01:56:55;;;;;;;39.23;26.37;;;;;;;;;;755685;184;917550;-73
2022/06/30 01:59:20;;;;;;;34.70;26.60;;;;;;;;;;761830;182;915116;-73
2022/06/30 02:01:46;;;;;;;35.37;24.87;;;;;;;;;;763547;182;920574;-72
2022/06/30 02:06:44;;;;;;;35.67;26.07;;;;;;;;;;764092;182;916303;-74
2022/06/30 02:09:10;;;;;;;36.23;26.27;;;;;;;;;;760767;182;916226;-75
2022/06/30 02:11:35;;;;;;;29.30;24.83;;;;;;;;;;763489;182;911488;-72
2022/06/30 02:14:01;;;;;;;27.10;20.40;;;;;;;;;;762485;183;915191;-74
2022/06/30 02:16:27;;;;;;;28.77;21.47;;;;;;;;;;759665;183;927857;-74
2022/06/30 02:18:54;;;;;;;27.57;21.00;;;;;;;;;;759849;183;918614;-73
2022/06/30 02:21:20;;;;;;;34.20;24.00;;;;;;;;;;770590;183;940224;-74
2022/06/30 02:23:46;;;;;;;25.50;22.10;;;;;;;;;;764733;181;911247;-74
2022/06/30 02:26:12;;;;;;;33.07;21.30;;;;;;;;;;768378;182;917996;-74
2022/06/30 02:28:38;;;;;;;29.93;22.70;;;;;;;;;;769518;182;918263;-75
2022/06/30 02:31:03;;;;;;;22.67;20.27;;;;;;;;;;764798;182;918627;-74
2022/06/30 02:33:29;;;;;;;29.00;21.60;;;;;;;;;;766434;182;919019;-73
2022/06/30 02:35:55;;;;;;;39.97;25.52;;;;;;;;;;767227;182;919070;-72
2022/06/30 02:38:21;;;;;;;31.20;22.37;;;;;;;;;;763247;183;924630;-75
2022/06/30 02:40:47;;;;;;;25.00;21.27;;;;;;;;;;765263;182;1021643;-74
2022/06/30 02:43:13;;;;;;;28.40;23.47;;;;;;;;;;762210;182;918900;-75
2022/06/30 02:45:39;;;;;;;30.07;24.60;;;;;;;;;;769286;182;918648;-74
2022/06/30 02:48:05;;;;;;;28.90;24.05;;;;;;;;;;762966;182;919323;-74
2022/06/30 02:50:31;;;;;;;36.43;25.93;;;;;;;;;;763902;183;920124;-74
2022/06/30 02:52:57;;;;;;;35.00;26.13;;;;;;;;;;766933;182;919968;-75
2022/06/30 02:55:23;;;;;;;32.43;24.03;;;;;;;;;;760349;183;919123;-74
2022/06/30 02:57:48;;;;;;;29.87;23.20;;;;;;;;;;761980;182;919314;-74
2022/06/30 03:00:14;;;;;;;32.57;25.40;;;;;;;;;;768517;182;919611;-75
2022/06/30 03:02:40;;;;;;;32.17;26.23;;;;;;;;;;763689;183;919442;-74
2022/06/30 03:05:07;;;;;;;30.03;25.40;;;;;;;;;;764342;182;919360;-75
2022/06/30 03:07:33;;;;;;;32.77;25.03;;;;;;;;;;761696;182;920728;-74
2022/06/30 03:09:59;;;;;;;30.47;24.13;;;;;;;;;;766595;183;919713;-73
2022/06/30 03:12:24;;;;;;;27.83;23.63;;;;;;;;;;763013;183;919051;-74
2022/06/30 03:14:50;;;;;;;28.75;24.85;;;;;;;;;;759504;183;1020657;-73
2022/06/30 03:17:16;;;;;;;33.00;25.40;;;;;;;;;;765622;183;931007;-73
2022/06/30 03:19:42;;;;;;;28.70;25.43;;;;;;;;;;762035;182;919197;-73
2022/06/30 03:22:08;;;;;;;30.63;24.07;;;;;;;;;;761210;182;921618;-75
2022/06/30 03:24:34;;;;;;;36.90;26.77;;;;;;;;;;768271;182;919041;-75
2022/06/30 03:26:59;;;;;;;32.10;27.10;;;;;;;;;;762895;182;1019882;-72
2022/06/30 03:29:25;;;;;;;36.70;27.60;;;;;;;;;;763713;182;918966;-74
2022/06/30 03:31:51;;;;;;;39.03;26.83;;;;;;;;;;762288;182;918835;-73
2022/06/30 03:34:17;;;;;;;36.27;24.97;;;;;;;;;;755664;183;1021327;-73
2022/06/30 03:36:43;;;;;;;40.00;29.33;;;;;;;;;;763062;182;918621;-73
2022/06/30 03:39:09;;;;;;;32.20;27.90;;;;;;;;;;762990;182;970048;-74
2022/06/30 03:41:35;;;;;;;39.87;28.00;;;;;;;;;;771384;182;917213;-73
2022/06/30 03:44:00;;;;;;;39.57;31.53;;;;;;;;;;764820;182;921807;-74
2022/06/30 03:46:26;;;;;;;39.97;33.00;;;;;;;;;;765125;181;920452;-75
2022/06/30 03:48:52;;;;;;;42.80;32.63;;;;;;;;;;767253;183;918666;-74
2022/06/30 03:51:18;;;;;;;50.83;35.83;;;;;;;;;;763790;183;918246;-74
2022/06/30 03:53:44;;;;;;;48.00;35.80;;;;;;;;;;762080;183;918919;-74
2022/06/30 03:56:10;;;;;;;50.08;34.03;;;;;;;;;;765505;182;920482;-74
2022/06/30 03:58:36;;;;;;;48.47;38.30;;;;;;;;;;762960;183;918608;-75
2022/06/30 04:01:02;;;;;;;53.63;38.37;;;;;;;;;;762718;183;919066;-75
2022/06/30 04:03:28;;;;;;;53.65;37.05;;;;;;;;;;751686;183;921049;-74
2022/06/30 04:05:54;;;;;;;49.60;37.57;;;;;;;;;;769118;183;920678;-75
2022/06/30 04:08:20;;;;;;;40.93;33.47;;;;;;;;;;766303;182;912828;-74
2022/06/30 04:10:45;;;;;;;43.57;33.20;;;;;;;;;;765499;182;895083;-75
2022/06/30 04:13:11;;;;;;;46.10;35.60;;;;;;;;;;767297;183;911955;-75
2022/06/30 04:15:37;;;;;;;48.87;34.03;;;;;;;;;;763088;182;911289;-76
2022/06/30 04:18:03;;;;;;;47.27;33.30;;;;;;;;;;765617;182;913103;-75
2022/06/30 04:20:29;;;;;;;41.27;34.10;;;;;;;;;;771222;182;626291;-74
2022/06/30 04:22:55;;;;;;;46.83;35.13;;;;;;;;;;763166;183;916055;-74
2022/06/30 04:25:21;;;;;;;39.60;32.17;;;;;;;;;;765173;183;912075;-76
2022/06/30 04:27:47;;;;;;;43.33;32.43;;;;;;;;;;764772;182;914262;-76
2022/06/30 04:30:13;;;;;;;40.20;32.43;;;;;;;;;;769921;182;742284;-75
2022/06/30 04:32:39;;;;;;;36.87;31.27;;;;;;;;;;764103;182;915318;-74
2022/06/30 04:35:05;;;;;;;46.33;31.73;;;;;;;;;;762245;182;919900;-74
2022/06/30 04:37:31;;;;;;;38.83;32.00;;;;;;;;;;766957;183;917586;-74
2022/06/30 04:42:29;;;;;;;40.53;31.97;;;;;;;;;;766319;182;918427;-75
2022/06/30 04:44:55;;;;;;;45.10;33.77;;;;;;;;;;764775;182;921647;-74
2022/06/30 04:47:21;;;;;;;41.87;32.07;;;;;;;;;;766910;182;940613;-74
2022/06/30 04:49:47;;;;;;;35.60;31.07;;;;;;;;;;765345;182;919352;-76
2022/06/30 04:52:12;;;;;;;39.77;31.50;;;;;;;;;;767217;182;645071;-75
2022/06/30 04:54:38;;;;;;;36.37;30.50;;;;;;;;;;772329;182;629002;-75
2022/06/30 04:57:04;;;;;;;38.50;29.60;;;;;;;;;;768891;180;643562;-76
2022/06/30 04:59:31;;;;;;;42.55;30.60;;;;;;;;;;765959;182;914526;-76
2022/06/30 05:01:56;;;;;;;38.03;29.97;;;;;;;;;;767986;182;914492;-75
2022/06/30 05:04:22;;;;;;;40.57;30.47;;;;;;;;;;761901;182;919025;-73
2022/06/30 05:06:48;;;;;;;35.05;29.45;;;;;;;;;;761277;182;1110750;-75
2022/06/30 05:09:13;;;;;;;37.47;29.00;;;;;;;;;;762336;182;921738;-73
2022/06/30 05:11:39;;;;;;;37.90;33.23;;;;;;;;;;768121;180;622192;-73
2022/06/30 05:14:05;;;;;;;34.10;29.93;;;;;;;;;;764147;183;919606;-73
2022/06/30 05:16:31;;;;;;;42.50;32.40;;;;;;;;;;762653;182;950342;-72
2022/06/30 05:18:57;;;;;;;33.37;27.93;;;;;;;;;;769690;182;615144;-73
2022/06/30 05:21:23;;;;;;;40.20;28.27;;;;;;;;;;762440;182;918131;-75
2022/06/30 05:28:52;;;;;;;34.27;27.60;;;;;;;;;;763874;181;1225891;-74
2022/06/30 05:31:18;;;;;;;39.63;26.43;;;;;;;;;;765426;183;916641;-75
2022/06/30 05:33:44;;;;;;;35.15;28.05;;;;;;;;;;762771;182;1130158;-74
2022/06/30 05:36:11;;;;;;;37.83;27.30;;;;;;;;;;766569;181;918590;-74
2022/06/30 05:38:36;;;;;;;30.47;26.83;;;;;;;;;;761061;182;918845;-78
2022/06/30 05:41:02;;;;;;;34.50;28.50;;;;;;;;;;762812;183;918862;-73
2022/06/30 05:43:27;;;;;;;36.10;27.10;;;;;;;;;;762456;182;919539;-74
2022/06/30 05:45:55;;;;;;;40.93;30.97;;;;;;;;;;762268;183;917625;-74
2022/06/30 05:48:19;;;;;;;37.37;29.50;;;;;;;;;;766488;183;817096;-73
2022/06/30 05:50:45;;;;;;;35.60;30.80;;;;;;;;;;761045;182;919200;-74
2022/06/30 05:53:11;;;;;;;34.80;29.47;;;;;;;;;;766104;182;918590;-75
2022/06/30 05:55:37;;;;;;;42.57;30.53;;;;;;;;;;762741;182;920666;-72
2022/06/30 05:58:04;;;;;;;40.47;30.67;;;;;;;;;;763289;182;919077;-74
2022/06/30 06:00:28;;;;;;;39.27;27.50;;;;;;;;;;770173;182;919669;-71
2022/06/30 06:02:54;;;;;;;42.83;31.00;;;;;;;;;;763955;179;919475;-74
2022/06/30 06:05:20;;;;;;;32.80;27.60;;;;;;;;;;761371;182;1020813;-73
2022/06/30 06:07:47;;;;;;;40.33;29.93;;;;;;;;;;769273;182;918618;-77
2022/06/30 06:10:13;;;;;;;36.87;29.77;;;;;;;;;;766099;182;918331;-72
2022/06/30 06:12:39;;;;;;;36.30;27.60;;;;;;;;;;765080;182;918897;-72
2022/06/30 06:15:05;;;;;;;40.43;29.43;;;;;;;;;;764197;182;919281;-77
2022/06/30 06:17:31;;;;;;;33.87;28.70;;;;;;;;;;766876;182;912430;-75
2022/06/30 06:19:56;;;;;;;33.43;28.60;;;;;;;;;;762772;182;918328;-73
2022/06/30 06:22:22;;;;;;;36.80;29.10;;;;;;;;;;763779;182;927004;-74
2022/06/30 06:24:48;;;;;;;33.30;25.90;;;;;;;;;;769015;183;914719;-76
2022/06/30 06:27:14;;;;;;;35.00;29.30;;;;;;;;;;761486;182;929931;-76
2022/06/30 06:29:40;;;;;;;31.93;28.37;;;;;;;;;;760313;182;919399;-75
2022/06/30 06:32:06;;;;;;;32.07;27.77;;;;;;;;;;768404;183;919275;-75
2022/06/30 06:34:32;;;;;;;43.63;29.00;;;;;;;;;;764963;182;919430;-73
2022/06/30 06:36:58;;;;;;;34.63;28.47;;;;;;;;;;762740;180;919079;-72
2022/06/30 06:39:23;;;;;;;37.10;28.27;;;;;;;;;;763862;183;918804;-77
2022/06/30 06:41:49;;;;;;;35.87;32.10;;;;;;;;;;765453;182;1020309;-75
2022/06/30 06:44:15;;;;;;;36.33;30.93;;;;;;;;;;761905;182;919582;-76
2022/06/30 06:46:41;;;;;;;37.07;29.13;;;;;;;;;;762029;182;920010;-74
2022/06/30 06:49:07;;;;;;;35.80;29.07;;;;;;;;;;767869;182;919198;-74
2022/06/30 06:51:33;;;;;;;33.23;29.67;;;;;;;;;;760788;182;918985;-76
2022/06/30 06:53:58;;;;;;;33.10;29.27;;;;;;;;;;761774;183;918749;-73
2022/06/30 06:56:24;;;;;;;34.27;28.70;;;;;;;;;;767329;182;918867;-74
2022/06/30 06:58:50;;;;;;;35.20;29.50;;;;;;;;;;762204;183;919561;-72
2022/06/30 07:01:16;;;;;;;35.50;29.35;;;;;;;;;;763416;182;918079;-75
2022/06/30 07:03:42;;;;;;;33.17;28.07;;;;;;;;;;763639;183;919002;-74
2022/06/30 07:06:08;;;;;;;35.40;29.00;;;;;;;;;;764591;182;918933;-74
2022/06/30 07:08:34;;;;;;;31.57;28.00;;;;;;;;;;763594;182;919612;-73
2022/06/30 07:10:59;;;;;;;33.23;27.97;;;;;;;;;;762538;180;1021064;-73
2022/06/30 07:13:25;;;;;;;30.75;27.45;;;;;;;;;;769017;182;919484;-77
2022/06/30 07:15:51;;;;;;;39.90;28.83;;;;;;;;;;766046;182;919152;-73
2022/06/30 07:18:17;;;;;;;31.00;27.70;;;;;;;;;;767414;182;919797;-77
2022/06/30 07:20:43;;;;;;;33.07;28.30;;;;;;;;;;768212;182;918928;-75
2022/06/30 07:23:09;;;;;;;36.93;29.30;;;;;;;;;;763637;182;920277;-75
2022/06/30 07:25:35;;;;;;;31.60;27.57;;;;;;;;;;761688;183;993673;-75
2022/06/30 07:28:00;;;;;;;31.53;26.73;;;;;;;;;;766878;179;919337;-76
2022/06/30 07:30:26;;;;;;;38.13;30.03;;;;;;;;;;757095;182;919683;-72
2022/06/30 07:32:52;;;;;;;31.37;26.60;;;;;;;;;;764496;182;919557;-73
2022/06/30 07:35:18;;;;;;;36.20;27.67;;;;;;;;;;761790;182;919513;-72
2022/06/30 07:37:44;;;;;;;30.27;26.87;;;;;;;;;;768405;182;919707;-73
2022/06/30 07:40:11;;;;;;;39.37;27.17;;;;;;;;;;763579;182;919293;-74
2022/06/30 07:42:36;;;;;;;30.47;27.30;;;;;;;;;;763290;182;919010;-71
2022/06/30 07:45:03;;;;;;;41.83;29.27;;;;;;;;;;768479;182;919056;-73
2022/06/30 07:47:29;;;;;;;32.20;25.80;;;;;;;;;;763250;182;919928;-75
2022/06/30 07:49:55;;;;;;;29.67;26.40;;;;;;;;;;761336;182;919401;-71
2022/06/30 07:52:21;;;;;;;32.20;27.70;;;;;;;;;;766937;182;918432;-73
2022/06/30 07:54:46;;;;;;;27.60;24.47;;;;;;;;;;763594;182;918715;-71
2022/06/30 07:57:12;;;;;;;30.10;26.90;;;;;;;;;;764377;182;915533;-76
2022/06/30 07:59:38;;;;;;;27.53;24.40;;;;;;;;;;759945;183;919072;-73
2022/06/30 08:02:04;;;;;;;29.87;25.80;;;;;;;;;;771367;183;624935;-76
2022/06/30 08:04:30;;;;;;;32.23;24.33;;;;;;;;;;764030;182;918790;-74
2022/06/30 08:06:56;;;;;;;27.05;22.80;;;;;;;;;;763114;182;918549;-74
2022/06/30 08:09:22;;;;;;;37.00;25.47;;;;;;;;;;766927;182;918741;-71
2022/06/30 08:11:47;;;;;;;32.70;25.27;;;;;;;;;;764304;182;918994;-74
2022/06/30 08:14:13;;;;;;;28.77;24.50;;;;;;;;;;761523;182;1021030;-73
2022/06/30 08:16:39;;;;;;;27.23;22.77;;;;;;;;;;769038;182;714476;-72
2022/06/30 08:19:05;;;;;;;25.77;22.87;;;;;;;;;;762760;182;919542;-73
2022/06/30 08:21:31;;;;;;;26.70;23.90;;;;;;;;;;764105;181;919103;-72
2022/06/30 08:23:57;;;;;;;27.80;24.30;;;;;;;;;;765554;182;919093;-73
2022/06/30 08:26:23;;;;;;;30.97;24.13;;;;;;;;;;762855;183;1002850;-72
2022/06/30 08:28:48;;;;;;;29.73;21.63;;;;;;;;;;756532;183;918717;-72
2022/06/30 08:31:15;;;;;;;24.00;21.37;;;;;;;;;;767842;182;624574;-72
2022/06/30 08:33:40;;;;;;;20.97;18.70;;;;;;;;;;771394;182;629923;-71
2022/06/30 08:36:06;;;;;;;27.17;20.40;;;;;;;;;;768329;182;620301;-70
2022/06/30 08:38:32;;;;;;;23.23;20.73;;;;;;;;;;766994;182;868615;-71
2022/06/30 08:43:29;;;;;;;26.30;18.57;;;;;;;;;;766179;183;650113;-72
2022/06/30 08:45:55;;;;;;;15.97;14.37;;;;;;;;;;764309;182;920304;-72
2022/06/30 08:48:21;;;;;;;21.30;18.90;;;;;;;;;;767640;182;608301;-69
2022/06/30 08:50:47;;;;;;;20.43;18.30;;;;;;;;;;770622;182;642121;-71
2022/06/30 08:53:13;;;;;;;25.37;16.17;;;;;;;;;;766443;182;683239;-72
2022/06/30 08:55:38;;;;;;;19.70;16.50;;;;;;;;;;766659;182;636502;-73
2022/06/30 08:58:04;;;;;;;21.07;17.77;;;;;;;;;;770508;182;622807;-70
2022/06/30 09:00:30;;;;;;;21.50;17.57;;;;;;;;;;763705;183;652040;-72
2022/06/30 09:02:56;;;;;;;21.23;19.03;;;;;;;;;;763589;183;619486;-72
2022/06/30 09:05:22;;;;;;;21.20;17.63;;;;;;;;;;771314;182;613438;-70
2022/06/30 09:07:48;;;;;;;20.23;17.23;;;;;;;;;;766677;182;638886;-71
2022/06/30 09:10:14;;;;;;;21.47;19.00;;;;;;;;;;765101;182;724875;-73
2022/06/30 09:12:41;;;;;;;21.70;17.97;;;;;;;;;;765205;183;623327;-70
2022/06/30 09:15:06;;;;;;;22.40;17.60;;;;;;;;;;771920;182;623194;-69
2022/06/30 09:17:32;;;;;;;23.53;17.90;;;;;;;;;;767537;182;625291;-69
2022/06/30 09:19:58;;;;;;;20.07;17.70;;;;;;;;;;765821;182;634540;-71
2022/06/30 09:22:39;;;;;;;22.53;17.80;;;;;;;;;;767718;183;625182;-70
2022/06/30 09:25:05;;;;;;;20.33;15.70;;;;;;;;;;766771;183;629284;-68
2022/06/30 09:27:31;;;;;;;21.77;16.92;;;;;;;;;;763859;183;823029;-69
2022/06/30 09:29:59;;;;;;;19.63;17.53;;;;;;;;;;765547;183;627821;-71
2022/06/30 09:32:25;;;;;;;20.90;17.90;;;;;;;;;;771418;182;638395;-71
2022/06/30 09:34:52;;;;;;;21.27;16.60;;;;;;;;;;772128;180;628953;-69
2022/06/30 09:37:19;;;;;;;17.13;15.50;;;;;;;;;;765671;183;624231;-70
2022/06/30 09:39:44;;;;;;;30.97;17.00;;;;;;;;;;762570;182;916319;-71
2022/06/30 09:42:10;;;;;;;18.23;16.37;;;;;;;;;;771110;182;916116;-71
2022/06/30 09:44:36;;;;;;;19.20;16.00;;;;;;;;;;767891;182;644843;-70
2022/06/30 09:47:04;;;;;;;16.73;14.93;;;;;;;;;;765387;182;916847;-70
2022/06/30 09:49:31;;;;;;;21.50;14.03;;;;;;;;;;768542;182;627628;-72
2022/06/30 09:51:57;;;;;;;18.73;15.40;;;;;;;;;;771023;182;628393;-69
2022/06/30 09:54:22;;;;;;;18.87;14.97;;;;;;;;;;769159;182;630307;-73
2022/06/30 09:56:55;;;;;;;16.87;15.10;;;;;;;;;;762816;182;871905;-70
2022/06/30 09:59:24;;;;;;;19.73;15.17;;;;;;;;;;771932;182;633223;-72
2022/06/30 10:01:50;;;;;;;18.57;14.70;;;;;;;;;;768134;182;644065;-71
2022/06/30 10:04:17;;;;;;;17.03;15.10;;;;;;;;;;766074;183;641420;-72
2022/06/30 10:06:42;;;;;;;18.67;14.60;;;;;;;;;;766144;182;635096;-72
2022/06/30 10:09:08;;;;;;;17.10;15.07;;;;;;;;;;755648;186;697140;-70
2022/06/30 10:11:34;;;;;;;15.43;13.83;;;;;;;;;;766220;183;746736;-69
2022/06/30 10:14:00;;;;;;;18.00;16.10;;;;;;;;;;765846;183;620710;-70
2022/06/30 10:16:26;;;;;;;17.50;15.30;;;;;;;;;;770433;180;622978;-69
2022/06/30 10:18:53;;;;;;;16.17;14.47;;;;;;;;;;769050;182;626603;-69
2022/06/30 10:21:21;;;;;;;18.23;14.60;;;;;;;;;;766155;182;636108;-70
2022/06/30 10:23:47;;;;;;;18.80;15.10;;;;;;;;;;770211;182;640843;-72
2022/06/30 10:28:55;;;;;;;16.67;14.90;;;;;;;;;;760720;183;918006;-73
2022/06/30 10:31:21;;;;;;;16.57;14.80;;;;;;;;;;764478;182;663213;-70
2022/06/30 10:34:03;;;;;;;17.53;15.67;;;;;;;;;;765950;182;632993;-70
2022/06/30 10:36:29;;;;;;;22.20;14.80;;;;;;;;;;767079;182;631119;-73
2022/06/30 10:39:10;;;;;;;19.87;14.80;;;;;;;;;;772190;183;622586;-70
2022/06/30 10:41:44;;;;;;;18.27;13.67;;;;;;;;;;763709;184;623389;-72
2022/06/30 10:44:09;;;;;;;19.00;15.40;;;;;;;;;;762241;183;631062;-71
2022/06/30 10:46:36;;;;;;;15.40;13.87;;;;;;;;;;769772;182;667527;-71
2022/06/30 10:49:07;;;;;;;18.50;15.50;;;;;;;;;;772694;182;634703;-70
2022/06/30 10:51:32;;;;;;;16.93;15.00;;;;;;;;;;766267;182;613907;-70
2022/06/30 10:53:58;;;;;;;18.17;15.20;;;;;;;;;;761056;182;919194;-71
2022/06/30 10:56:26;;;;;;;16.83;14.00;;;;;;;;;;764105;183;912896;-71
2022/06/30 10:58:56;;;;;;;17.33;15.53;;;;;;;;;;766427;182;919670;-70
2022/06/30 11:01:22;;;;;;;17.90;14.60;;;;;;;;;;768418;179;627410;-69
2022/06/30 11:03:58;;;;;;;17.07;14.63;;;;;;;;;;765098;183;887325;-71
2022/06/30 11:06:26;;;;;;;16.17;14.47;;;;;;;;;;767122;182;1021696;-70
2022/06/30 11:08:57;;;;;;;16.53;13.33;;;;;;;;;;771165;182;620024;-71
2022/06/30 11:11:35;;;;;;;17.23;13.77;;;;;;;;;;762722;183;624866;-72
2022/06/30 11:14:17;;;;;;;20.13;13.70;;;;;;;;;;762346;182;918608;-70
2022/06/30 11:16:42;;;;;;;19.10;13.33;;;;;;;;;;759736;183;615104;-70
2022/06/30 11:19:14;;;;;;;16.60;14.37;;;;;;;;;;769592;182;614334;-72
2022/06/30 11:21:43;;;;;;;15.53;13.40;;;;;;;;;;766907;182;616161;-71
2022/06/30 11:24:09;;;;;;;14.87;13.30;;;;;;;;;;764115;183;667189;-70
2022/06/30 11:29:11;;;;;;;13.30;12.00;;;;;;;;;;764422;182;912714;-74
2022/06/30 11:31:37;;;;;;;13.17;11.73;;;;;;;;;;768121;182;628130;-73
2022/06/30 11:34:11;;;;;;;13.67;12.27;;;;;;;;;;769344;182;636965;-71
2022/06/30 11:36:37;;;;;;;13.87;12.47;;;;;;;;;;770435;183;628114;-71
2022/06/30 11:39:06;;;;;;;12.67;11.37;;;;;;;;;;765426;183;629108;-71
2022/06/30 11:44:03;;;;;;;15.17;11.70;;;;;;;;;;765990;183;633858;-70
2022/06/30 11:46:29;;;;;;;15.00;13.20;;;;;;;;;;768079;184;628377;-71
2022/06/30 11:48:55;;;;;;;15.47;12.07;;;;;;;;;;764424;183;633200;-71
2022/06/30 11:51:21;;;;;;;14.83;12.40;;;;;;;;;;766705;183;630117;-71
2022/06/30 11:53:46;;;;;;;12.87;11.47;;;;;;;;;;771542;182;621258;-71
2022/06/30 11:56:12;;;;;;;16.10;12.20;;;;;;;;;;767920;182;617228;-72
2022/06/30 11:58:38;;;;;;;12.83;11.23;;;;;;;;;;770908;182;637569;-71
2022/06/30 12:01:10;;;;;;;12.93;10.90;;;;;;;;;;771190;182;630792;-72
2022/06/30 12:03:36;;;;;;;14.27;12.30;;;;;;;;;;767858;182;645249;-73
2022/06/30 12:06:01;;;;;;;12.30;11.07;;;;;;;;;;764109;183;665072;-71
2022/06/30 12:08:27;;;;;;;15.27;11.00;;;;;;;;;;764109;183;904488;-71
2022/06/30 12:10:56;;;;;;;11.63;10.17;;;;;;;;;;772305;183;633979;-71
2022/06/30 12:13:19;;;;;;;12.77;9.17;;;;;;;;;;767532;182;639389;-71
2022/06/30 12:15:45;;;;;;;14.07;10.80;;;;;;;;;;768617;182;624004;-71
2022/06/30 12:18:12;;;;;;;12.70;10.10;;;;;;;;;;770828;182;624424;-71
2022/06/30 12:20:38;;;;;;;9.73;8.80;;;;;;;;;;767015;182;915567;-72
2022/06/30 12:23:03;;;;;;;10.67;9.23;;;;;;;;;;767658;182;639197;-71
2022/06/30 12:25:28;;;;;;;12.20;9.67;;;;;;;;;;771669;182;650522;-71
2022/06/30 12:27:56;;;;;;;12.07;6.43;;;;;;;;;;767178;182;637223;-71
2022/06/30 12:30:20;;;;;;;7.07;5.30;;;;;;;;;;767064;182;700699;-72
2022/06/30 12:32:55;;;;;;;6.43;5.57;;;;;;;;;;763019;182;919343;-70
2022/06/30 12:35:21;;;;;;;11.20;7.83;;;;;;;;;;769895;182;630658;-71
2022/06/30 12:37:47;;;;;;;8.10;7.27;;;;;;;;;;767496;183;640154;-71
2022/06/30 12:40:12;;;;;;;15.03;8.40;;;;;;;;;;766846;182;915523;-72
2022/06/30 12:42:38;;;;;;;11.90;6.77;;;;;;;;;;767765;183;634615;-69
2022/06/30 12:45:04;;;;;;;6.90;6.20;;;;;;;;;;762553;183;714300;-70
2022/06/30 12:47:30;;;;;;;6.93;6.23;;;;;;;;;;763467;182;916905;-71
2022/06/30 12:49:56;;;;;;;10.17;5.97;;;;;;;;;;764923;182;636273;-72
2022/06/30 12:52:22;;;;;;;8.67;5.90;;;;;;;;;;767330;181;916842;-71
2022/06/30 12:54:50;;;;;;;6.80;6.10;;;;;;;;;;766839;183;641287;-71
2022/06/30 12:57:15;;;;;;;6.33;5.73;;;;;;;;;;766991;183;644389;-72
2022/06/30 12:59:44;;;;;;;8.70;4.77;;;;;;;;;;769492;182;619060;-71
2022/06/30 13:02:10;;;;;;;9.83;6.20;;;;;;;;;;767179;183;623370;-71
2022/06/30 13:04:36;;;;;;;7.20;6.13;;;;;;;;;;763122;183;635972;-70
2022/06/30 13:07:02;;;;;;;7.70;6.70;;;;;;;;;;760711;183;663744;-71
2022/06/30 13:09:27;;;;;;;7.20;5.70;;;;;;;;;;773707;181;646158;-70
2022/06/30 13:11:54;;;;;;;9.53;6.60;;;;;;;;;;768612;181;652360;-71
2022/06/30 13:14:20;;;;;;;7.07;5.53;;;;;;;;;;767806;183;634062;-70
2022/06/30 13:16:46;;;;;;;6.43;5.57;;;;;;;;;;773005;182;629839;-70
2022/06/30 13:19:12;;;;;;;10.20;6.70;;;;;;;;;;765484;183;918900;-68
2022/06/30 13:21:38;;;;;;;7.57;6.23;;;;;;;;;;764691;182;920004;-70
2022/06/30 13:24:04;;;;;;;7.07;6.37;;;;;;;;;;769153;183;645573;-71
2022/06/30 13:26:29;;;;;;;7.43;6.63;;;;;;;;;;763993;183;619172;-71
2022/06/30 13:28:55;;;;;;;8.77;6.03;;;;;;;;;;761934;183;919903;-71
2022/06/30 13:31:21;;;;;;;10.90;6.87;;;;;;;;;;762031;182;919803;-72
2022/06/30 13:33:47;;;;;;;10.67;6.73;;;;;;;;;;768723;183;919312;-71
2022/06/30 13:36:13;;;;;;;8.00;6.70;;;;;;;;;;769279;183;617499;-71
2022/06/30 13:38:39;;;;;;;8.30;6.93;;;;;;;;;;764300;182;919528;-71
2022/06/30 13:41:04;;;;;;;9.90;6.60;;;;;;;;;;771338;182;633287;-71
2022/06/30 13:43:30;;;;;;;10.77;7.70;;;;;;;;;;766237;180;627723;-71
2022/06/30 13:45:56;;;;;;;9.50;7.20;;;;;;;;;;766368;183;634316;-71
2022/06/30 13:48:22;;;;;;;12.93;11.43;;;;;;;;;;772697;182;643536;-71
2022/06/30 13:50:48;;;;;;;12.63;10.80;;;;;;;;;;766590;182;635056;-71
2022/06/30 13:53:14;;;;;;;13.27;11.87;;;;;;;;;;766043;183;703367;-72
2022/06/30 13:55:40;;;;;;;14.93;12.50;;;;;;;;;;767397;182;623185;-70
2022/06/30 13:58:05;;;;;;;13.50;11.43;;;;;;;;;;770328;183;624557;-72
2022/06/30 14:00:31;;;;;;;17.30;11.83;;;;;;;;;;765717;182;637738;-71
2022/06/30 14:02:57;;;;;;;19.07;12.47;;;;;;;;;;768511;182;917453;-72
2022/06/30 14:05:23;;;;;;;22.03;13.23;;;;;;;;;;770851;182;630383;-71
2022/06/30 14:07:49;;;;;;;17.47;13.07;;;;;;;;;;768662;182;635149;-70
2022/06/30 14:10:15;;;;;;;14.40;12.10;;;;;;;;;;768157;182;624790;-73
2022/06/30 14:12:41;;;;;;;18.83;12.20;;;;;;;;;;765809;183;615498;-70
2022/06/30 14:15:08;;;;;;;12.90;11.63;;;;;;;;;;766742;182;637559;-71
2022/06/30 14:17:34;;;;;;;17.13;12.60;;;;;;;;;;760291;182;899483;-70
2022/06/30 14:20:02;;;;;;;12.03;10.73;;;;;;;;;;765922;181;626874;-72
2022/06/30 14:22:27;;;;;;;13.40;12.00;;;;;;;;;;774740;182;619838;-71